Time;durP1;ratioP1;P1;durP2;ratioP2;P2;SDS_P1;SDS_P2;PMS_P1;PMS_P2;Temp;Humidity;BMP_temperature;BMP_pressure;BME280_temperature;BME280_humidity;BME280_pressure;Samples;Min_cycle;Max_cycle;Signal;HPM_P1;HPM_P2
2021/10/14 00:00:55;;;;;;;8.77;6.83;;;10.80;99.90;;;;;;4992275;28;20239;-71
2021/10/14 00:03:24;;;;;;;8.33;7.53;;;10.80;99.90;;;;;;4990324;28;20240;-72
2021/10/14 00:05:53;;;;;;;7.43;6.77;;;10.90;99.90;;;;;;4992296;28;20711;-71
2021/10/14 00:08:23;;;;;;;7.87;7.07;;;10.90;99.90;;;;;;4993934;28;20261;-72
2021/10/14 00:10:51;;;;;;;8.10;7.23;;;10.80;99.90;;;;;;4994524;28;20747;-72
2021/10/14 00:13:22;;;;;;;9.23;8.07;;;10.80;99.90;;;;;;4997801;28;20243;-71
2021/10/14 00:15:51;;;;;;;9.60;7.83;;;10.80;99.90;;;;;;4993091;28;20240;-71
2021/10/14 00:18:20;;;;;;;10.83;8.23;;;10.90;99.90;;;;;;4994235;28;20244;-71
2021/10/14 00:20:48;;;;;;;10.23;7.47;;;10.90;99.90;;;;;;4989789;28;20622;-71
2021/10/14 00:23:17;;;;;;;11.07;8.70;;;10.90;99.90;;;;;;4993835;28;20240;-71
2021/10/14 00:25:46;;;;;;;9.02;8.23;;;10.90;99.90;;;;;;4563759;28;10001089;-71
2021/10/14 00:28:14;;;;;;;9.60;8.60;;;10.90;99.90;;;;;;1369011;28;10002429;-72
2021/10/14 00:30:44;;;;;;;11.50;9.83;;;11.00;99.90;;;;;;4989986;28;20893;-71
2021/10/14 00:33:12;;;;;;;10.47;9.30;;;11.00;99.90;;;;;;4991790;28;20229;-71
2021/10/14 00:35:41;;;;;;;12.80;9.23;;;11.00;99.90;;;;;;4985069;28;20238;-71
2021/10/14 00:38:09;;;;;;;10.30;8.97;;;11.00;99.90;;;;;;4990576;28;20767;-71
2021/10/14 00:40:38;;;;;;;10.97;8.57;;;11.00;99.90;;;;;;4990099;28;20797;-71
2021/10/14 00:43:06;;;;;;;12.20;8.57;;;11.00;99.90;;;;;;4987180;28;20240;-71
2021/10/14 00:45:34;;;;;;;9.80;8.90;;;11.10;99.90;;;;;;4991916;28;20236;-71
2021/10/14 00:48:04;;;;;;;10.00;8.90;;;11.10;99.90;;;;;;4993532;28;20244;-72
2021/10/14 00:50:33;;;;;;;10.50;9.50;;;11.00;99.90;;;;;;4986099;28;20280;-71
2021/10/14 00:53:01;;;;;;;9.87;8.80;;;11.10;99.90;;;;;;4994738;28;20241;-71
2021/10/14 00:55:34;;;;;;;10.17;9.17;;;11.10;99.90;;;;;;4994264;28;20247;-71
2021/10/14 00:58:02;;;;;;;10.47;9.47;;;11.10;99.90;;;;;;4992399;28;20270;-71
2021/10/14 01:00:30;;;;;;;9.57;8.53;;;11.10;99.90;;;;;;4986529;28;20692;-72
2021/10/14 01:02:59;;;;;;;9.47;8.47;;;11.20;99.90;;;;;;4993881;28;20238;-71
2021/10/14 01:05:28;;;;;;;10.53;9.43;;;11.20;99.90;;;;;;4994171;28;20572;-71
2021/10/14 01:07:56;;;;;;;11.63;9.97;;;11.20;99.90;;;;;;4990868;28;20639;-71
2021/10/14 01:10:25;;;;;;;11.87;10.10;;;11.30;99.90;;;;;;4993205;28;20434;-71
2021/10/14 01:12:53;;;;;;;11.10;10.00;;;11.20;99.90;;;;;;4990315;28;20719;-72
2021/10/14 01:15:25;;;;;;;10.93;9.83;;;11.30;99.90;;;;;;4990709;28;20641;-71
2021/10/14 01:17:54;;;;;;;12.57;9.90;;;11.30;99.90;;;;;;4987641;28;20238;-71
2021/10/14 01:20:24;;;;;;;11.40;9.53;;;11.20;99.90;;;;;;4989833;28;20334;-72
2021/10/14 01:22:52;;;;;;;11.87;9.80;;;11.30;99.90;;;;;;4992721;28;20638;-71
2021/10/14 01:25:21;;;;;;;12.37;10.47;;;11.30;99.90;;;;;;4992326;28;20325;-71
2021/10/14 01:27:49;;;;;;;10.97;9.53;;;11.30;99.90;;;;;;4991149;28;20234;-71
2021/10/14 01:30:18;;;;;;;11.57;10.07;;;11.40;99.90;;;;;;4991569;28;20234;-71
2021/10/14 01:32:49;;;;;;;10.40;9.40;;;11.40;99.90;;;;;;4995480;28;20718;-71
2021/10/14 01:35:18;;;;;;;11.13;9.80;;;11.40;99.90;;;;;;4989065;28;20241;-71
2021/10/14 01:37:47;;;;;;;10.37;9.43;;;11.40;99.90;;;;;;4991739;28;20327;-71
2021/10/14 01:40:16;;;;;;;11.20;9.03;;;11.40;99.90;;;;;;4999355;28;20610;-72
2021/10/14 01:42:44;;;;;;;9.50;8.70;;;11.40;99.90;;;;;;4987599;28;20238;-72
2021/10/14 01:45:12;;;;;;;10.17;8.87;;;11.40;99.90;;;;;;4993046;28;20659;-71
2021/10/14 01:47:40;;;;;;;9.07;8.10;;;11.50;99.90;;;;;;4994066;28;20289;-71
2021/10/14 01:50:09;;;;;;;9.47;8.57;;;11.40;99.90;;;;;;4995027;28;20254;-71
2021/10/14 01:52:37;;;;;;;9.70;8.23;;;11.50;99.90;;;;;;4993798;28;20236;-72
2021/10/14 01:55:07;;;;;;;8.63;7.83;;;11.40;99.90;;;;;;4996384;28;20587;-71
2021/10/14 01:57:35;;;;;;;8.33;7.30;;;11.40;99.90;;;;;;5000615;28;20257;-71
2021/10/14 02:00:11;;;;;;;8.10;7.30;;;11.40;99.90;;;;;;4996591;28;20294;-72
2021/10/14 02:02:39;;;;;;;9.20;7.87;;;11.50;99.90;;;;;;4972642;28;20244;-71
2021/10/14 02:05:08;;;;;;;8.50;7.73;;;11.50;99.90;;;;;;4996642;28;20650;-71
2021/10/14 02:07:36;;;;;;;8.03;7.23;;;11.50;99.90;;;;;;5002728;28;20330;-71
2021/10/14 02:10:07;;;;;;;8.30;7.40;;;11.50;99.90;;;;;;4997264;28;20741;-71
2021/10/14 02:12:35;;;;;;;8.60;7.77;;;11.50;99.90;;;;;;4992360;28;20547;-71
2021/10/14 02:15:04;;;;;;;7.50;6.80;;;11.60;99.90;;;;;;4990578;28;20233;-71
2021/10/14 02:17:32;;;;;;;7.93;6.57;;;11.60;99.90;;;;;;4995927;28;20287;-71
2021/10/14 02:20:00;;;;;;;7.00;6.30;;;11.60;99.90;;;;;;4994338;28;20314;-71
2021/10/14 02:22:29;;;;;;;7.00;6.30;;;11.60;99.90;;;;;;4981294;28;20233;-71
2021/10/14 02:24:57;;;;;;;6.07;5.57;;;11.60;99.90;;;;;;4974145;28;20264;-71
2021/10/14 02:27:27;;;;;;;6.23;5.63;;;11.60;99.90;;;;;;4991125;28;20241;-71
2021/10/14 02:29:55;;;;;;;6.17;5.60;;;11.60;99.90;;;;;;4974284;28;20235;-72
2021/10/14 02:32:23;;;;;;;5.80;5.30;;;11.60;99.90;;;;;;4992261;28;20584;-71
2021/10/14 02:34:54;;;;;;;5.43;4.93;;;11.70;99.90;;;;;;4986528;28;20771;-71
2021/10/14 02:37:22;;;;;;;5.37;4.87;;;11.80;99.90;;;;;;4994965;28;20265;-71
2021/10/14 02:39:50;;;;;;;5.47;4.97;;;11.70;99.90;;;;;;4996315;28;20339;-71
2021/10/14 02:42:18;;;;;;;5.23;4.83;;;11.70;99.90;;;;;;4993419;28;20246;-71
2021/10/14 02:44:48;;;;;;;4.93;4.43;;;11.70;99.90;;;;;;4999913;28;20328;-71
2021/10/14 02:47:16;;;;;;;6.00;5.33;;;11.70;99.90;;;;;;4991571;28;20715;-72
2021/10/14 02:49:44;;;;;;;5.70;5.20;;;11.70;99.90;;;;;;4997261;28;20581;-71
2021/10/14 02:52:12;;;;;;;5.37;4.97;;;11.80;99.90;;;;;;4993870;28;20291;-71
2021/10/14 02:54:40;;;;;;;6.63;5.93;;;11.70;99.90;;;;;;4978531;28;20251;-71
2021/10/14 02:57:08;;;;;;;6.40;5.80;;;11.70;99.90;;;;;;4997489;28;20388;-71
2021/10/14 02:59:36;;;;;;;6.73;6.13;;;11.70;99.90;;;;;;4997707;28;20326;-71
2021/10/14 03:02:06;;;;;;;6.13;5.63;;;11.70;99.90;;;;;;4993755;28;20324;-71
2021/10/14 03:04:34;;;;;;;5.93;5.43;;;11.80;99.90;;;;;;4994695;28;20242;-71
2021/10/14 03:07:02;;;;;;;5.63;5.13;;;11.70;99.90;;;;;;4997807;28;20692;-71
2021/10/14 03:09:30;;;;;;;5.30;4.77;;;11.80;99.90;;;;;;4986434;28;20255;-71
2021/10/14 03:11:59;;;;;;;5.67;5.17;;;11.80;99.90;;;;;;4992031;28;20548;-71
2021/10/14 03:14:27;;;;;;;5.20;4.70;;;11.90;99.90;;;;;;4989897;28;20239;-71
2021/10/14 03:16:55;;;;;;;5.40;5.00;;;11.80;99.90;;;;;;4999370;28;20236;-71
2021/10/14 03:19:24;;;;;;;5.03;4.53;;;11.80;99.90;;;;;;4994478;28;20238;-71
2021/10/14 03:21:52;;;;;;;4.50;4.10;;;11.80;99.90;;;;;;4999459;28;20646;-71
2021/10/14 03:24:20;;;;;;;4.10;3.80;;;11.90;99.90;;;;;;4995649;28;20235;-71
2021/10/14 03:26:49;;;;;;;4.43;4.03;;;11.90;99.90;;;;;;4996990;28;20251;-71
2021/10/14 03:29:17;;;;;;;4.17;3.87;;;11.90;99.90;;;;;;4994024;28;20242;-71
2021/10/14 03:31:45;;;;;;;4.20;3.90;;;11.90;99.90;;;;;;4993738;28;20273;-71
2021/10/14 03:34:13;;;;;;;4.23;3.70;;;12.00;99.90;;;;;;4990107;28;20524;-71
2021/10/14 03:36:43;;;;;;;4.43;4.03;;;12.00;99.90;;;;;;4980415;28;20233;-71
2021/10/14 03:39:11;;;;;;;5.33;4.83;;;11.90;99.90;;;;;;4993843;28;20649;-70
2021/10/14 03:41:39;;;;;;;5.50;4.50;;;12.00;99.90;;;;;;4995362;28;20725;-71
2021/10/14 03:44:07;;;;;;;5.63;5.13;;;12.00;99.90;;;;;;4991222;28;20610;-71
2021/10/14 03:46:35;;;;;;;6.80;6.17;;;12.00;99.90;;;;;;4994494;28;20241;-71
2021/10/14 03:49:03;;;;;;;9.17;8.20;;;12.00;99.90;;;;;;4990213;28;20248;-71
2021/10/14 03:51:31;;;;;;;8.67;7.83;;;12.10;99.90;;;;;;4989774;28;20612;-71
2021/10/14 03:54:01;;;;;;;9.93;8.47;;;12.10;99.90;;;;;;4994473;28;20772;-71
2021/10/14 03:56:29;;;;;;;10.30;9.20;;;12.10;99.90;;;;;;4992829;28;20679;-71
2021/10/14 03:58:57;;;;;;;12.73;10.87;;;12.10;99.90;;;;;;4991684;28;20629;-71
2021/10/14 04:01:25;;;;;;;12.73;9.20;;;12.10;99.90;;;;;;4990803;28;20232;-71
2021/10/14 04:03:53;;;;;;;12.73;11.40;;;12.10;99.90;;;;;;4992341;28;20244;-71
2021/10/14 04:06:21;;;;;;;15.50;12.17;;;12.20;99.90;;;;;;4994276;28;20239;-71
2021/10/14 04:08:49;;;;;;;17.33;12.97;;;12.10;99.90;;;;;;4999902;28;20244;-72
2021/10/14 04:11:19;;;;;;;20.77;13.70;;;12.20;99.90;;;;;;4996427;28;20798;-72
2021/10/14 04:13:47;;;;;;;19.70;15.20;;;12.20;99.90;;;;;;4992316;28;20320;-71
2021/10/14 04:16:15;;;;;;;20.00;14.23;;;12.10;99.90;;;;;;4997345;28;20273;-71
2021/10/14 04:18:43;;;;;;;25.67;15.10;;;12.10;99.90;;;;;;4988223;28;20295;-71
2021/10/14 04:21:12;;;;;;;21.27;16.47;;;12.30;99.90;;;;;;4993238;28;20239;-71
2021/10/14 04:23:42;;;;;;;22.33;15.47;;;12.20;99.90;;;;;;4993467;28;20241;-71
2021/10/14 04:26:12;;;;;;;20.93;15.70;;;12.30;99.90;;;;;;4990568;28;20237;-71
2021/10/14 04:28:41;;;;;;;20.77;15.63;;;12.30;99.90;;;;;;4990930;28;20713;-71
2021/10/14 04:31:10;;;;;;;21.63;14.80;;;12.40;99.90;;;;;;4992143;28;20298;-71
2021/10/14 04:33:38;;;;;;;17.20;15.20;;;12.30;99.90;;;;;;4997622;28;20732;-71
2021/10/14 04:36:06;;;;;;;19.37;15.50;;;12.30;99.90;;;;;;4993475;28;20600;-71
2021/10/14 04:38:34;;;;;;;18.27;15.63;;;12.30;99.90;;;;;;4987796;28;20708;-71
2021/10/14 04:41:03;;;;;;;19.40;14.67;;;12.30;99.90;;;;;;4995315;28;20247;-71
2021/10/14 04:43:31;;;;;;;21.67;16.57;;;12.30;99.90;;;;;;4988758;28;20668;-71
2021/10/14 04:46:00;;;;;;;17.73;15.37;;;12.30;99.90;;;;;;4991808;28;20240;-72
2021/10/14 04:48:29;;;;;;;20.53;14.43;;;12.40;99.90;;;;;;4994337;28;20227;-71
2021/10/14 04:50:57;;;;;;;20.57;14.03;;;12.40;99.90;;;;;;4995537;28;20263;-71
2021/10/14 04:53:25;;;;;;;20.57;15.37;;;12.40;99.90;;;;;;4991076;28;20583;-71
2021/10/14 04:55:53;;;;;;;17.57;13.40;;;12.40;99.90;;;;;;4989876;28;20612;-71
2021/10/14 04:58:21;;;;;;;19.87;13.40;;;12.40;99.90;;;;;;4987199;28;20311;-71
2021/10/14 05:00:50;;;;;;;17.23;13.47;;;12.30;99.90;;;;;;4988192;28;20596;-71
2021/10/14 05:03:20;;;;;;;15.07;11.80;;;12.30;99.90;;;;;;4997410;28;20778;-71
2021/10/14 05:05:50;;;;;;;15.03;11.47;;;12.30;99.90;;;;;;4994348;28;20251;-71
2021/10/14 05:08:18;;;;;;;15.13;12.03;;;12.40;99.90;;;;;;4990010;28;21844;-71
2021/10/14 05:10:46;;;;;;;16.80;11.23;;;12.30;99.90;;;;;;4986637;28;20248;-71
2021/10/14 05:13:14;;;;;;;11.73;10.50;;;12.30;99.90;;;;;;4991075;28;20836;-71
2021/10/14 05:15:43;;;;;;;16.67;10.40;;;12.30;99.90;;;;;;4988910;28;21508;-71
2021/10/14 05:18:12;;;;;;;12.93;10.33;;;12.30;99.90;;;;;;4990771;28;20263;-71
2021/10/14 05:20:41;;;;;;;10.70;9.30;;;12.30;99.90;;;;;;4989253;28;20331;-71
2021/10/14 05:23:09;;;;;;;10.40;8.30;;;12.20;99.90;;;;;;4987639;28;20238;-71
2021/10/14 05:25:38;;;;;;;11.73;8.73;;;12.30;99.90;;;;;;4989476;28;20296;-71
2021/10/14 05:28:06;;;;;;;12.90;9.00;;;12.20;99.90;;;;;;4982702;28;20743;-72
2021/10/14 05:30:34;;;;;;;12.73;8.20;;;12.20;99.90;;;;;;4987406;28;20361;-71
2021/10/14 05:33:02;;;;;;;9.27;7.33;;;12.20;99.90;;;;;;4992445;28;20267;-71
2021/10/14 05:35:36;;;;;;;13.43;8.47;;;12.20;99.90;;;;;;4984528;28;20252;-71
2021/10/14 05:38:06;;;;;;;13.37;9.20;;;12.20;99.90;;;;;;4991426;28;20326;-71
2021/10/14 05:40:35;;;;;;;12.53;9.03;;;12.30;99.90;;;;;;4992983;28;20807;-71
2021/10/14 05:43:04;;;;;;;13.90;9.13;;;12.30;99.90;;;;;;4990102;28;20321;-71
2021/10/14 05:45:32;;;;;;;11.60;9.37;;;12.30;99.90;;;;;;4993391;28;20595;-71
2021/10/14 05:48:00;;;;;;;13.77;8.90;;;12.30;99.90;;;;;;4990922;28;20330;-71
2021/10/14 05:50:28;;;;;;;12.07;9.20;;;12.30;99.90;;;;;;4988862;28;20670;-71
2021/10/14 05:52:56;;;;;;;12.40;9.07;;;12.30;99.90;;;;;;4987979;28;20247;-71
2021/10/14 05:55:26;;;;;;;13.33;9.17;;;12.20;99.90;;;;;;4990090;28;20235;-71
2021/10/14 05:57:54;;;;;;;13.27;9.17;;;12.30;99.90;;;;;;4997692;28;20247;-71
2021/10/14 06:00:22;;;;;;;13.93;9.33;;;12.20;99.90;;;;;;4989825;28;20248;-71
2021/10/14 06:02:51;;;;;;;10.03;8.30;;;12.30;99.90;;;;;;4993538;28;20821;-71
2021/10/14 06:05:19;;;;;;;11.90;8.47;;;12.30;99.90;;;;;;4986081;28;20334;-71
2021/10/14 06:07:49;;;;;;;13.60;8.97;;;12.30;99.90;;;;;;4990216;28;20735;-71
2021/10/14 06:10:17;;;;;;;11.43;9.27;;;12.30;99.90;;;;;;4988727;28;20270;-71
2021/10/14 06:12:46;;;;;;;12.10;8.63;;;12.30;99.90;;;;;;4992529;28;20239;-71
2021/10/14 06:15:17;;;;;;;11.27;8.90;;;12.30;99.90;;;;;;4989238;28;20604;-71
2021/10/14 06:17:45;;;;;;;13.90;9.00;;;12.30;99.90;;;;;;4997895;28;20240;-71
2021/10/14 06:20:13;;;;;;;15.00;8.90;;;12.30;99.90;;;;;;4990414;28;20332;-71
2021/10/14 06:22:41;;;;;;;13.27;9.17;;;12.30;99.90;;;;;;5000175;28;20243;-71
2021/10/14 06:25:10;;;;;;;12.80;8.40;;;12.30;99.90;;;;;;4989803;28;20762;-71
2021/10/14 06:27:39;;;;;;;11.60;8.53;;;12.30;99.90;;;;;;4985808;28;20243;-71
2021/10/14 06:30:09;;;;;;;13.40;8.67;;;12.30;99.90;;;;;;4984822;28;20239;-71
2021/10/14 06:32:37;;;;;;;14.87;9.50;;;12.20;99.90;;;;;;4986609;28;20326;-71
2021/10/14 06:35:07;;;;;;;10.07;8.67;;;12.30;99.90;;;;;;4994618;28;20279;-71
2021/10/14 06:37:35;;;;;;;12.17;8.07;;;12.30;99.90;;;;;;4986993;28;20236;-72
2021/10/14 06:40:04;;;;;;;11.33;8.03;;;12.30;99.90;;;;;;4991778;28;20245;-71
2021/10/14 06:42:32;;;;;;;14.03;8.37;;;12.30;99.90;;;;;;4993197;28;20237;-71
2021/10/14 06:45:01;;;;;;;11.13;7.80;;;12.30;99.90;;;;;;4997566;28;21254;-71
2021/10/14 06:47:30;;;;;;;13.57;7.80;;;12.30;99.90;;;;;;4991102;28;20353;-71
2021/10/14 06:50:00;;;;;;;9.33;7.40;;;12.30;99.90;;;;;;4984454;28;20773;-72
2021/10/14 06:52:29;;;;;;;9.93;7.50;;;12.30;99.90;;;;;;4996294;28;20728;-71
2021/10/14 06:54:57;;;;;;;12.43;8.50;;;12.30;99.90;;;;;;4986808;28;20751;-71
2021/10/14 06:57:26;;;;;;;15.50;8.53;;;12.30;99.90;;;;;;4986100;28;20240;-71
2021/10/14 06:59:54;;;;;;;13.27;8.17;;;12.30;99.90;;;;;;4990727;28;20250;-71
2021/10/14 07:02:22;;;;;;;11.80;8.73;;;12.30;99.90;;;;;;4991788;28;20271;-71
2021/10/14 07:04:52;;;;;;;15.20;9.03;;;12.40;99.90;;;;;;4992009;28;20247;-71
2021/10/14 07:07:20;;;;;;;15.93;9.27;;;12.40;99.90;;;;;;4987878;28;20295;-72
2021/10/14 07:09:48;;;;;;;16.87;10.33;;;12.40;99.90;;;;;;4992454;28;20710;-71
2021/10/14 07:12:16;;;;;;;17.03;10.60;;;12.50;99.90;;;;;;4984091;28;20674;-71
2021/10/14 07:14:46;;;;;;;17.83;9.97;;;12.50;99.90;;;;;;4993083;28;20247;-71
2021/10/14 07:17:14;;;;;;;15.87;10.47;;;12.60;99.90;;;;;;4972101;28;20718;-71
2021/10/14 07:19:43;;;;;;;14.37;10.30;;;12.60;99.90;;;;;;4992738;28;20232;-71
2021/10/14 07:22:12;;;;;;;15.57;10.83;;;12.70;99.90;;;;;;4994003;28;20643;-72
2021/10/14 07:24:40;;;;;;;14.13;10.97;;;12.70;99.90;;;;;;4995455;28;20250;-71
2021/10/14 07:27:08;;;;;;;14.00;10.13;;;12.70;99.90;;;;;;4991714;28;20243;-71
2021/10/14 07:29:37;;;;;;;19.17;11.43;;;12.80;99.90;;;;;;4988705;28;20250;-71
2021/10/14 07:32:06;;;;;;;15.70;10.17;;;12.90;99.90;;;;;;4995039;28;20350;-71
2021/10/14 07:34:34;;;;;;;11.60;8.97;;;12.90;99.90;;;;;;4973237;28;20238;-71
2021/10/14 07:37:03;;;;;;;13.93;8.50;;;13.00;99.90;;;;;;4995668;28;20343;-71
2021/10/14 07:39:33;;;;;;;10.17;8.73;;;13.00;99.90;;;;;;4984525;28;20251;-71
2021/10/14 07:42:02;;;;;;;11.03;9.00;;;13.10;99.90;;;;;;4993643;28;20263;-71
2021/10/14 07:44:30;;;;;;;11.60;8.50;;;13.10;99.90;;;;;;4978138;28;20904;-71
2021/10/14 07:46:58;;;;;;;13.93;8.10;;;13.20;99.90;;;;;;4988601;28;20736;-71
2021/10/14 07:49:26;;;;;;;10.90;7.37;;;13.20;99.90;;;;;;4990283;28;20283;-71
2021/10/14 07:51:54;;;;;;;9.63;7.27;;;13.20;99.90;;;;;;4992867;28;20698;-71
2021/10/14 07:54:23;;;;;;;8.13;6.83;;;13.20;99.90;;;;;;4980784;28;21675;-71
2021/10/14 07:56:52;;;;;;;8.43;6.20;;;13.20;99.90;;;;;;4992212;28;20367;-71
2021/10/14 07:59:20;;;;;;;10.83;6.33;;;13.30;99.90;;;;;;4985594;28;20252;-71
2021/10/14 08:01:48;;;;;;;11.13;6.13;;;13.30;99.90;;;;;;4985501;28;20273;-71
2021/10/14 08:04:20;;;;;;;9.57;5.50;;;13.30;99.90;;;;;;4984931;28;20247;-71
2021/10/14 08:06:48;;;;;;;9.30;5.13;;;13.30;99.90;;;;;;4987376;28;20241;-71
2021/10/14 08:09:16;;;;;;;10.20;5.23;;;13.40;99.90;;;;;;4991360;28;20306;-71
2021/10/14 08:11:44;;;;;;;8.80;4.40;;;13.50;99.90;;;;;;4991233;28;20237;-71
2021/10/14 08:14:14;;;;;;;5.80;4.40;;;13.60;99.90;;;;;;4986856;28;20276;-71
2021/10/14 08:16:42;;;;;;;6.33;4.00;;;13.70;99.90;;;;;;4990732;28;20322;-70
2021/10/14 08:19:10;;;;;;;7.67;4.43;;;13.70;99.90;;;;;;4992420;28;20268;-71
2021/10/14 08:21:38;;;;;;;6.87;3.60;;;13.70;99.90;;;;;;4988289;28;20233;-71
2021/10/14 08:24:06;;;;;;;4.67;3.70;;;13.70;99.90;;;;;;4992568;28;20268;-71
2021/10/14 08:26:35;;;;;;;5.57;3.40;;;13.70;99.90;;;;;;4990311;28;20246;-71
2021/10/14 08:29:03;;;;;;;5.27;3.10;;;13.70;99.90;;;;;;4990713;28;20260;-69
2021/10/14 08:31:32;;;;;;;4.30;2.83;;;13.80;99.90;;;;;;4989311;28;20241;-72
2021/10/14 08:34:02;;;;;;;8.57;3.47;;;13.80;99.90;;;;;;4980506;28;20344;-72
2021/10/14 08:36:31;;;;;;;4.13;2.97;;;13.80;99.90;;;;;;4990338;28;20287;-72
2021/10/14 08:38:59;;;;;;;5.10;3.13;;;13.80;99.90;;;;;;4991909;28;20760;-73
2021/10/14 08:41:27;;;;;;;3.70;2.50;;;13.80;99.90;;;;;;4985579;28;20233;-73
2021/10/14 08:43:57;;;;;;;5.90;2.90;;;13.90;99.90;;;;;;4992987;28;20237;-72
2021/10/14 08:46:25;;;;;;;4.43;2.33;;;13.90;99.90;;;;;;4990936;28;20244;-72
2021/10/14 08:48:55;;;;;;;3.83;2.80;;;13.90;99.90;;;;;;4991952;28;20702;-72
2021/10/14 08:51:24;;;;;;;3.87;2.27;;;13.80;99.90;;;;;;4986143;28;20252;-73
2021/10/14 08:53:52;;;;;;;3.93;2.33;;;13.80;99.90;;;;;;4987625;28;20244;-72
2021/10/14 08:56:20;;;;;;;3.70;2.27;;;13.80;99.90;;;;;;4988388;28;20347;-72
2021/10/14 08:58:49;;;;;;;3.17;2.00;;;13.70;99.90;;;;;;4988200;28;20267;-73
2021/10/14 09:01:17;;;;;;;2.80;2.40;;;13.60;99.90;;;;;;4993269;28;20316;-71
2021/10/14 09:03:48;;;;;;;3.20;2.30;;;13.50;99.90;;;;;;4975041;28;21209;-71
2021/10/14 09:06:19;;;;;;;4.13;2.40;;;13.40;99.90;;;;;;4991840;28;20244;-72
2021/10/14 09:08:49;;;;;;;3.77;2.80;;;13.40;99.90;;;;;;4972436;28;20243;-71
2021/10/14 09:11:19;;;;;;;3.87;2.67;;;13.40;99.90;;;;;;4991046;28;20239;-71
2021/10/14 09:13:51;;;;;;;2.70;2.50;;;13.30;99.90;;;;;;4991404;28;20240;-71
2021/10/14 09:16:25;;;;;;;3.03;2.50;;;13.20;99.90;;;;;;4991942;28;20250;-72
2021/10/14 09:18:54;;;;;;;2.90;2.50;;;13.30;99.90;;;;;;4991320;28;20326;-72
2021/10/14 09:21:27;;;;;;;3.50;2.60;;;13.30;99.90;;;;;;4990018;28;20253;-72
2021/10/14 09:23:58;;;;;;;5.53;3.50;;;13.30;99.90;;;;;;4993733;28;20538;-72
2021/10/14 09:26:28;;;;;;;3.43;2.70;;;13.30;99.90;;;;;;4983357;28;20274;-71
2021/10/14 09:29:07;;;;;;;3.53;2.50;;;13.30;99.90;;;;;;4989268;28;20251;-71
2021/10/14 09:31:51;;;;;;;3.07;2.77;;;13.30;99.90;;;;;;4985401;28;20743;-71
2021/10/14 09:34:35;;;;;;;3.80;3.50;;;13.30;99.90;;;;;;4998915;28;20732;-72
2021/10/14 09:37:25;;;;;;;3.97;3.50;;;13.20;99.90;;;;;;4989403;28;20331;-72
2021/10/14 09:39:58;;;;;;;4.83;4.00;;;13.20;99.90;;;;;;4986987;28;20919;-73
2021/10/14 09:42:43;;;;;;;4.73;4.33;;;13.20;99.90;;;;;;4984751;28;20496;-73
2021/10/14 09:45:19;;;;;;;5.00;4.47;;;13.20;99.90;;;;;;4988514;28;20243;-73
2021/10/14 09:48:07;;;;;;;6.93;4.60;;;13.20;99.90;;;;;;4984327;28;20250;-73
2021/10/14 09:50:38;;;;;;;4.83;4.43;;;13.20;99.90;;;;;;4992109;28;20712;-73
2021/10/14 09:53:11;;;;;;;4.97;4.47;;;13.20;99.90;;;;;;4985327;28;20478;-73
2021/10/14 09:55:39;;;;;;;5.87;4.70;;;13.20;99.90;;;;;;4987734;28;20649;-73
2021/10/14 09:58:08;;;;;;;6.07;5.00;;;13.20;99.90;;;;;;4979021;28;20597;-73
2021/10/14 10:00:40;;;;;;;6.07;5.47;;;13.20;99.90;;;;;;4977829;28;20563;-72
2021/10/14 10:03:10;;;;;;;7.17;5.53;;;13.20;99.90;;;;;;4985048;28;20245;-72
2021/10/14 10:05:39;;;;;;;5.27;4.47;;;13.20;99.90;;;;;;4986486;28;20339;-71
2021/10/14 10:08:13;;;;;;;6.13;5.10;;;13.20;99.90;;;;;;4989195;28;20239;-73
2021/10/14 10:10:45;;;;;;;6.43;5.73;;;13.20;99.90;;;;;;4986731;28;20266;-70
2021/10/14 10:13:14;;;;;;;9.87;6.97;;;13.20;99.90;;;;;;4988693;28;20248;-72
2021/10/14 10:15:45;;;;;;;11.63;8.33;;;13.30;99.90;;;;;;4991506;28;21323;-73
2021/10/14 10:18:40;;;;;;;8.10;5.87;;;13.30;99.90;;;;;;4990794;28;20236;-73
2021/10/14 10:21:30;;;;;;;7.57;6.63;;;13.30;99.90;;;;;;4987942;28;20314;-71
2021/10/14 10:24:01;;;;;;;5.63;5.10;;;13.20;99.90;;;;;;4989944;28;20252;-71
2021/10/14 10:26:48;;;;;;;6.83;6.03;;;13.20;99.90;;;;;;4994114;28;20570;-73
2021/10/14 10:29:45;;;;;;;7.63;5.97;;;13.20;99.90;;;;;;4977575;28;20749;-71
2021/10/14 10:32:21;;;;;;;6.10;5.50;;;13.30;99.90;;;;;;4941407;28;20276;-72
2021/10/14 10:35:03;;;;;;;13.77;9.57;;;13.20;99.90;;;;;;4993450;28;20713;-72
2021/10/14 10:37:41;;;;;;;9.07;7.43;;;13.30;99.90;;;;;;4966807;28;20276;-73
2021/10/14 10:40:17;;;;;;;8.30;6.23;;;13.30;99.90;;;;;;4996241;28;20259;-74
2021/10/14 10:42:48;;;;;;;9.37;6.50;;;13.20;99.90;;;;;;4995827;28;20233;-71
2021/10/14 10:45:19;;;;;;;5.73;3.90;;;13.20;99.90;;;;;;4996714;28;20680;-72
2021/10/14 10:47:57;;;;;;;8.60;4.23;;;13.10;99.90;;;;;;4987954;28;20240;-70
2021/10/14 10:50:42;;;;;;;5.43;4.17;;;13.10;99.90;;;;;;4989400;28;20264;-72
2021/10/14 10:53:13;;;;;;;6.03;4.33;;;13.10;99.90;;;;;;4991236;28;20330;-73
2021/10/14 10:55:45;;;;;;;6.77;3.77;;;13.10;99.90;;;;;;4993904;28;20302;-73
2021/10/14 10:58:14;;;;;;;6.90;3.87;;;13.00;99.90;;;;;;4990601;28;20244;-73
2021/10/14 11:00:45;;;;;;;5.27;3.90;;;13.00;99.90;;;;;;4991706;28;20247;-73
2021/10/14 11:03:19;;;;;;;6.13;4.53;;;13.10;99.90;;;;;;4983360;28;20244;-73
2021/10/14 11:05:53;;;;;;;5.57;4.10;;;13.10;99.90;;;;;;4991942;28;20659;-76
2021/10/14 11:08:23;;;;;;;6.27;4.20;;;13.20;99.90;;;;;;4994695;28;20245;-73
2021/10/14 11:10:54;;;;;;;7.40;4.33;;;13.30;99.90;;;;;;4988996;28;20244;-73
2021/10/14 11:13:24;;;;;;;6.17;4.10;;;13.40;99.90;;;;;;4988912;28;20324;-73
2021/10/14 11:16:03;;;;;;;7.70;5.60;;;13.50;99.90;;;;;;4990353;28;20242;-73
2021/10/14 11:18:31;;;;;;;6.50;5.07;;;13.50;99.90;;;;;;4988957;28;20787;-72
2021/10/14 11:21:01;;;;;;;8.97;6.40;;;13.50;99.90;;;;;;4993994;28;20230;-73
2021/10/14 11:23:31;;;;;;;7.37;5.80;;;13.60;99.90;;;;;;4989129;28;20240;-73
2021/10/14 11:26:15;;;;;;;10.67;6.37;;;13.60;99.90;;;;;;4991551;28;20240;-73
2021/10/14 11:29:05;;;;;;;7.70;6.37;;;13.60;99.90;;;;;;4985995;28;20726;-72
2021/10/14 11:31:36;;;;;;;7.90;6.67;;;13.60;99.90;;;;;;4974757;28;20294;-73
2021/10/14 11:34:07;;;;;;;10.83;7.40;;;13.70;99.90;;;;;;4985602;28;20244;-72
2021/10/14 11:36:36;;;;;;;10.47;7.70;;;13.80;99.90;;;;;;4983158;28;20241;-73
2021/10/14 11:39:07;;;;;;;10.80;7.23;;;13.80;99.90;;;;;;4989380;28;20252;-72
2021/10/14 11:41:37;;;;;;;10.83;7.17;;;13.80;99.90;;;;;;4989638;28;20249;-71
2021/10/14 11:44:08;;;;;;;12.17;7.73;;;13.90;99.90;;;;;;4987969;28;20355;-73
2021/10/14 11:46:38;;;;;;;10.23;8.33;;;13.90;99.90;;;;;;4991245;28;20700;-72
2021/10/14 11:49:08;;;;;;;10.83;8.57;;;13.90;99.90;;;;;;4994953;28;20244;-71
2021/10/14 11:51:36;;;;;;;12.40;7.50;;;13.90;99.90;;;;;;4990522;28;20240;-73
2021/10/14 11:54:07;;;;;;;10.63;7.70;;;14.00;99.90;;;;;;4978226;28;20785;-73
2021/10/14 11:56:44;;;;;;;9.93;7.67;;;14.00;99.90;;;;;;4989964;28;20245;-72
2021/10/14 11:59:13;;;;;;;11.03;7.77;;;14.00;99.90;;;;;;4977660;28;20240;-73
2021/10/14 12:01:48;;;;;;;11.87;7.90;;;14.00;99.90;;;;;;4988983;28;20240;-72
2021/10/14 12:04:19;;;;;;;10.23;7.43;;;14.10;99.90;;;;;;4986866;28;20323;-73
2021/10/14 12:06:48;;;;;;;13.27;8.37;;;14.10;99.90;;;;;;4985421;28;20239;-73
2021/10/14 12:09:36;;;;;;;15.13;10.20;;;14.10;99.90;;;;;;4982941;28;20276;-74
2021/10/14 12:12:06;;;;;;;9.67;7.00;;;14.10;99.90;;;;;;4991528;28;20331;-73
2021/10/14 12:14:36;;;;;;;15.03;8.70;;;14.20;99.90;;;;;;4990848;28;20246;-72
2021/10/14 12:17:06;;;;;;;11.53;7.43;;;14.20;99.90;;;;;;4990460;28;20258;-73
2021/10/14 12:19:40;;;;;;;10.37;6.87;;;14.20;99.90;;;;;;4989263;28;20660;-73
2021/10/14 12:22:10;;;;;;;13.93;7.90;;;14.30;99.90;;;;;;4983946;28;20255;-73
2021/10/14 12:24:52;;;;;;;12.60;7.50;;;14.30;99.90;;;;;;4986272;28;20537;-71
2021/10/14 12:27:21;;;;;;;12.20;7.10;;;14.30;99.90;;;;;;4992285;28;20697;-71
2021/10/14 12:29:50;;;;;;;9.17;7.00;;;14.20;99.90;;;;;;4990287;28;20245;-72
2021/10/14 12:32:21;;;;;;;10.90;7.70;;;14.20;99.90;;;;;;4988253;28;20305;-72
2021/10/14 12:34:58;;;;;;;11.17;7.50;;;14.20;99.90;;;;;;4992960;28;20302;-72
2021/10/14 12:37:30;;;;;;;10.90;7.67;;;14.20;99.90;;;;;;4990393;28;20339;-73
2021/10/14 12:40:19;;;;;;;10.40;7.57;;;14.20;99.90;;;;;;4997684;28;20286;-72
2021/10/14 12:42:57;;;;;;;8.57;7.40;;;14.20;99.90;;;;;;4993284;28;20678;-73
2021/10/14 12:45:38;;;;;;;11.87;7.50;;;14.20;99.90;;;;;;4986473;28;20265;-73
2021/10/14 12:48:15;;;;;;;11.73;7.80;;;14.20;99.90;;;;;;4982686;28;20254;-73
2021/10/14 12:51:07;;;;;;;9.13;8.00;;;14.20;99.90;;;;;;4989534;28;20264;-71
2021/10/14 12:53:41;;;;;;;10.23;7.13;;;14.20;99.90;;;;;;4992457;28;20758;-72
2021/10/14 12:56:10;;;;;;;10.43;8.30;;;14.30;99.90;;;;;;4991804;28;20869;-74